メインページ
METAR-TAF:

METAR-TAF

空港 :

サンパウロ, サンパウロ州, ブラジル

コンゴーニャス空港

緯度: 23-37S, 経度: 046-39W, 海抜: 803m

現時点の気象観測

当レポートは51分前の01:00(UTC)に作成
南東の風 7kt
気温 15°C
湿度 82%
気圧 1028 hPa
視程10km以上
高度2600ftの千切れ雲あり

METAR: SBSP 260100Z 14007KT 9999 BKN026 15/12 Q1028

時間: 22:51 (01:51 UTC)

予報

当レポートは3時間51分前の22:00(UTC)に作成
予報は26日の 00時(UTC)から 26日の 24時(UTC)まで有効
南/南東の風 8kt
視程10km以上
高度900ftの千切れ雲あり
26日の 05時(UTC)から 26日の 07時(UTC)まで徐々に
の風 5kt
視程10km以上
1,500メートル以下は雲なし、積乱雲なし
確率 30%
26日の 09時(UTC)から 26日の 11時(UTC)まで
の風 5kt
視程: 7000m
高度700ftの千切れ雲あり
26日の 12時(UTC)から 26日の 14時(UTC)まで徐々に
高度2500ftの雲はほとんどない
26日の 19時(UTC)から 26日の 21時(UTC)まで徐々に
南/南東の風 5kt
26日の 21時(UTC)から 26日の 23時(UTC)まで徐々に
高度900ftの千切れ雲あり

TAF: SBSP 252200Z 2600/2624 15008KT 9999 BKN009 TN13/2608Z TX23/2617Z BECMG 2605/2607 10005KT CAVOK PROB30 2609/2611 08005KT 7000 BKN007 BECMG 2612/2614 FEW025 BECMG 2619/2621 15005KT BECMG 2621/2623 BKN009 RMK PHG

4,000以上の空港の気象観測と天気予報(METAR報とTAF報)

利用可能な観測所は地図上に黄色い丸と赤い丸で示す。

丸の上にカーソルを重ねると観測所名を参照できる。

次にクリックすると気象観測と天気予報を参照できる。

マップの切り替え:黒色「×」印の緑ボタンをクリックして拡大、「-」印の緑ボタンをクリックして縮小、緑色の三角印をクリックして隣りの地図に切り替え


METAR-TAF: